Search for airport 
image banner adimage banner adimage banner ad
image banner ad

VTBO - Trat (Khao Sming) / Trat Airport

Located in Trat, Thailand

ICAO - VTBO, IATA - TDX

Data provided by Airmate  

General information

Coordinates: N12°16'31" E102°19'12"
Elevation is 82 feet MSL.
 
View others Airports in Trat Province

Operational data

Special qualification required
Current time UTC:
Current local time:
Weather
TAF: TAF VTBO 191100Z 1912/2012 20005KT 9999 FEW020 BECMG 1914/1916 02005KT BECMG 2002/2004 10008KT BECMG 2006/2008 21008KT
View NOTAMs / SUP AIP / TFR affecting this airport [VIEW]
Communications frequencies: [VIEW]

Runways:

RWY identifierQFULength (ft)Width (ft)SurfaceLDA (ft)
0551°5906148ASP
23231°5906148

Airport contact information

Address: Trat Thailand

Satellite view of VTBO